Terminal Aerodrome Forecast
Issued by NWS

Home | Current Version | Previous Version | Text Only | Print | Product List | Glossary On
Versions: 1 2 3 4 5 6 7 8 9 10 11 12 13
000
FTUS46 KSTO 310500
TAFMHR
TAF
KMHR 310520Z 3106/0106 16005KT P6SM BKN120
     FM310900 17006KT P6SM OVC050
     FM311800 15009KT P6SM -RA OVC025
      TEMPO 3119/3123 3SM RA OVC015
     FM010300 26007KT P6SM -SHRA OVC050=

USA.gov is the U.S. government's official web portal to all federal, state and local government web resources and services.